Time;durP1;ratioP1;P1;durP2;ratioP2;P2;SDS_P1;SDS_P2;PMS_P1;PMS_P2;Temp;Humidity;BMP_temperature;BMP_pressure;BME280_temperature;BME280_humidity;BME280_pressure;Samples;Min_cycle;Max_cycle;Signal;HPM_P1;HPM_P2
2020/12/03 00:00:34;;;;;;;38.67;23.33;;;1.70;99.90;;;;;;6178505;28;20908;-62
2020/12/03 00:03:39;;;;;;;38.57;21.50;;;1.80;99.90;;;;;;6178474;28;20515;-62
2020/12/03 00:06:47;;;;;;;38.03;22.40;;;1.80;99.90;;;;;;6178357;28;20480;-62
2020/12/03 00:09:50;;;;;;;42.27;25.40;;;2.00;99.90;;;;;;6178241;28;20497;-67
2020/12/03 00:13:05;;;;;;;37.10;23.73;;;2.00;99.90;;;;;;6177961;28;20470;-62
2020/12/03 00:16:08;;;;;;;31.33;22.20;;;2.10;99.90;;;;;;6178074;28;20496;-60
2020/12/03 00:19:16;;;;;;;42.40;23.87;;;2.10;99.90;;;;;;6164773;28;20488;-64
2020/12/03 00:22:19;;;;;;;40.13;24.30;;;2.10;99.90;;;;;;6154020;29;20975;-59
2020/12/03 00:25:22;;;;;;;33.93;21.60;;;2.10;99.90;;;;;;6153920;28;21033;-62
2020/12/03 00:28:29;;;;;;;33.27;20.80;;;2.20;99.90;;;;;;6153691;29;20498;-63
2020/12/03 00:31:32;;;;;;;39.77;24.27;;;2.20;99.90;;;;;;6153833;29;20894;-63
2020/12/03 00:34:34;;;;;;;39.83;23.40;;;2.20;99.90;;;;;;6153517;28;20446;-59
2020/12/03 00:37:36;;;;;;;33.00;21.87;;;2.10;99.90;;;;;;6153797;29;20443;-63
2020/12/03 00:40:39;;;;;;;37.00;22.20;;;2.10;99.90;;;;;;6153352;28;20494;-62
2020/12/03 00:43:42;;;;;;;36.50;22.67;;;2.00;99.90;;;;;;6153503;29;20854;-61
2020/12/03 00:46:45;;;;;;;35.10;22.87;;;2.00;99.90;;;;;;6153754;29;20447;-61
2020/12/03 00:49:47;;;;;;;37.17;23.00;;;2.00;99.90;;;;;;6170716;28;20536;-63
2020/12/03 00:52:49;;;;;;;34.83;21.00;;;2.00;99.90;;;;;;6177528;28;20465;-62
2020/12/03 00:55:51;;;;;;;32.57;20.97;;;2.10;99.90;;;;;;6177343;28;20809;-63
2020/12/03 00:58:54;;;;;;;35.10;21.80;;;2.10;99.90;;;;;;6177140;28;20470;-62
2020/12/03 01:01:57;;;;;;;32.27;21.03;;;2.10;99.90;;;;;;6177141;28;20466;-65
2020/12/03 01:04:59;;;;;;;34.80;21.70;;;2.20;99.90;;;;;;6177176;28;20477;-61
2020/12/03 01:08:02;;;;;;;37.47;22.43;;;2.10;99.90;;;;;;6177283;28;20489;-64
2020/12/03 01:11:05;;;;;;;37.93;23.20;;;2.10;99.90;;;;;;6176680;28;20477;-65
2020/12/03 01:14:08;;;;;;;33.63;21.67;;;2.10;99.90;;;;;;6176972;28;20824;-64
2020/12/03 01:17:13;;;;;;;33.50;20.90;;;2.10;99.90;;;;;;6176795;28;20474;-62
2020/12/03 01:20:18;;;;;;;32.43;21.90;;;2.10;99.90;;;;;;6155376;28;20482;-65
2020/12/03 01:23:21;;;;;;;30.67;19.97;;;2.10;99.90;;;;;;6152811;29;20470;-61
2020/12/03 01:26:23;;;;;;;37.27;23.00;;;2.00;99.90;;;;;;6152735;29;20470;-64
2020/12/03 01:29:27;;;;;;;31.87;21.53;;;2.10;99.90;;;;;;6152833;29;20481;-62
2020/12/03 01:32:30;;;;;;;34.37;22.03;;;2.10;99.90;;;;;;6152670;29;20479;-63
2020/12/03 01:35:32;;;;;;;31.70;21.17;;;2.00;99.90;;;;;;6152513;29;20482;-62
2020/12/03 01:38:34;;;;;;;33.67;20.53;;;2.10;99.90;;;;;;6152248;29;20475;-61
2020/12/03 01:41:37;;;;;;;34.73;23.10;;;2.00;99.90;;;;;;6152428;29;20498;-65
2020/12/03 01:44:50;;;;;;;34.00;22.17;;;2.10;99.90;;;;;;6152644;29;20482;-62
2020/12/03 01:47:54;;;;;;;31.70;20.40;;;2.00;99.90;;;;;;6159056;28;20471;-61
2020/12/03 01:50:58;;;;;;;31.10;20.80;;;2.00;99.90;;;;;;6176318;28;20478;-62
2020/12/03 01:54:04;;;;;;;35.90;22.77;;;2.10;99.90;;;;;;6176778;28;20834;-56
2020/12/03 01:57:35;;;;;;;31.90;22.30;;;2.00;99.90;;;;;;6174237;28;20485;-58
2020/12/03 02:00:38;;;;;;;30.70;20.93;;;2.00;99.90;;;;;;6174272;28;20834;-59
2020/12/03 02:03:46;;;;;;;33.93;19.87;;;2.10;99.90;;;;;;6188950;28;20469;-59
2020/12/03 02:06:58;;;;;;;35.63;24.17;;;2.10;99.90;;;;;;6187147;28;20469;-59
2020/12/03 02:10:01;;;;;;;36.70;21.83;;;2.10;99.90;;;;;;6184659;28;20481;-59
2020/12/03 02:13:03;;;;;;;36.30;23.40;;;2.10;99.90;;;;;;6186285;28;20462;-58
2020/12/03 02:16:06;;;;;;;37.30;22.40;;;2.10;99.90;;;;;;6188812;28;20488;-59
2020/12/03 02:19:17;;;;;;;31.13;21.93;;;2.10;99.90;;;;;;6180142;28;20484;-59
2020/12/03 02:22:20;;;;;;;33.70;22.50;;;2.20;99.90;;;;;;6190123;28;20473;-59
2020/12/03 02:25:23;;;;;;;37.80;22.77;;;2.20;99.90;;;;;;6200223;28;20469;-59
2020/12/03 02:28:26;;;;;;;32.60;22.33;;;2.20;99.90;;;;;;6200312;28;20854;-59
2020/12/03 02:31:30;;;;;;;35.80;22.27;;;2.20;99.90;;;;;;6199973;28;20480;-58
2020/12/03 02:34:33;;;;;;;38.23;23.13;;;2.10;99.90;;;;;;6200469;28;20450;-59
2020/12/03 02:37:37;;;;;;;34.57;23.67;;;2.00;99.90;;;;;;6200730;28;20460;-58
2020/12/03 02:40:39;;;;;;;42.37;24.53;;;2.00;99.90;;;;;;6199748;28;20957;-58
2020/12/03 02:43:41;;;;;;;35.10;22.40;;;2.00;99.90;;;;;;6200380;28;20484;-58
2020/12/03 02:46:44;;;;;;;34.90;21.60;;;2.00;99.90;;;;;;6200432;28;20449;-58
2020/12/03 02:49:48;;;;;;;32.03;20.20;;;1.90;99.90;;;;;;6204342;28;20503;-58
2020/12/03 02:52:51;;;;;;;37.23;21.83;;;1.90;99.90;;;;;;6204425;28;20930;-58
2020/12/03 02:55:53;;;;;;;39.23;21.77;;;2.00;99.90;;;;;;6204269;28;20487;-58
2020/12/03 02:58:56;;;;;;;36.30;21.87;;;1.90;99.90;;;;;;6195936;28;20562;-58
2020/12/03 03:01:58;;;;;;;28.40;20.37;;;1.90;99.90;;;;;;6196500;28;20512;-58
2020/12/03 03:05:03;;;;;;;35.23;22.57;;;1.90;99.90;;;;;;6188810;28;20466;-58
2020/12/03 03:08:06;;;;;;;33.13;22.23;;;1.90;99.90;;;;;;6195015;28;20466;-58
2020/12/03 03:11:09;;;;;;;30.60;20.67;;;1.90;99.90;;;;;;6193570;28;20555;-58
2020/12/03 03:14:11;;;;;;;26.97;19.07;;;1.90;99.90;;;;;;6191215;28;20465;-58
2020/12/03 03:17:14;;;;;;;33.43;20.40;;;1.90;99.90;;;;;;6195074;28;20468;-58
2020/12/03 03:20:16;;;;;;;28.90;19.20;;;1.90;99.90;;;;;;6180985;28;20484;-58
2020/12/03 03:23:19;;;;;;;33.67;18.93;;;1.90;99.90;;;;;;6180019;28;20481;-58
2020/12/03 03:26:22;;;;;;;31.97;20.10;;;1.90;99.90;;;;;;6179420;28;20961;-58
2020/12/03 03:29:24;;;;;;;30.30;20.57;;;1.90;99.90;;;;;;6179404;28;20485;-58
2020/12/03 03:32:28;;;;;;;32.93;19.97;;;1.90;99.90;;;;;;6179352;28;20478;-58
2020/12/03 03:35:30;;;;;;;27.80;20.53;;;1.80;99.90;;;;;;6179361;28;20489;-59
2020/12/03 03:38:34;;;;;;;27.53;20.20;;;1.90;99.90;;;;;;6179705;28;20488;-58
2020/12/03 03:41:36;;;;;;;28.93;20.70;;;1.90;99.90;;;;;;6178894;28;20477;-58
2020/12/03 03:44:38;;;;;;;34.30;21.57;;;1.90;99.90;;;;;;6179097;28;20966;-58
2020/12/03 03:47:41;;;;;;;32.77;19.43;;;1.90;99.90;;;;;;6179027;28;20470;-58
2020/12/03 03:50:43;;;;;;;30.40;20.00;;;1.90;99.90;;;;;;6179460;28;20478;-58
2020/12/03 03:53:47;;;;;;;28.67;18.43;;;2.00;99.90;;;;;;6178871;28;20561;-58
2020/12/03 03:56:49;;;;;;;34.33;20.03;;;1.90;99.90;;;;;;6178839;28;20480;-59
2020/12/03 03:59:52;;;;;;;30.33;21.00;;;2.00;99.90;;;;;;6178367;28;20474;-58
2020/12/03 04:02:54;;;;;;;30.77;20.20;;;1.90;99.90;;;;;;6174399;28;20493;-59
2020/12/03 04:05:57;;;;;;;31.13;20.60;;;2.00;99.90;;;;;;6178736;28;20961;-59
2020/12/03 04:09:00;;;;;;;26.70;20.83;;;1.90;99.90;;;;;;6178868;28;20478;-58
2020/12/03 04:12:02;;;;;;;28.67;19.70;;;2.00;99.90;;;;;;6178641;28;20474;-58
2020/12/03 04:15:05;;;;;;;27.13;19.00;;;2.00;99.90;;;;;;6178449;28;20961;-58
2020/12/03 04:18:07;;;;;;;29.07;19.40;;;2.10;99.90;;;;;;6178603;28;20481;-58
2020/12/03 04:21:10;;;;;;;31.20;20.17;;;2.10;99.90;;;;;;6178274;28;20488;-58
2020/12/03 04:24:14;;;;;;;31.00;20.27;;;2.10;99.90;;;;;;6178322;28;20473;-58
2020/12/03 04:27:16;;;;;;;35.10;21.20;;;2.00;99.90;;;;;;6178317;28;20481;-58
2020/12/03 04:30:19;;;;;;;28.03;18.80;;;2.10;99.90;;;;;;6178517;28;20477;-58
2020/12/03 04:33:22;;;;;;;33.33;21.00;;;2.10;99.90;;;;;;6177555;28;20998;-58
2020/12/03 04:36:24;;;;;;;30.10;19.77;;;2.10;99.90;;;;;;6177904;28;20489;-60
2020/12/03 04:39:27;;;;;;;31.20;20.17;;;2.10;99.90;;;;;;6177637;28;20822;-59
2020/12/03 04:42:33;;;;;;;30.30;20.67;;;2.10;99.90;;;;;;6177226;28;20570;-59
2020/12/03 04:45:41;;;;;;;33.50;19.00;;;2.10;99.90;;;;;;6177781;28;20478;-59
2020/12/03 04:48:57;;;;;;;29.40;17.80;;;2.10;99.90;;;;;;6177425;28;20834;-58
2020/12/03 04:52:33;;;;;;;27.20;19.30;;;2.10;99.90;;;;;;6177531;28;20489;-59
2020/12/03 04:55:51;;;;;;;33.30;20.10;;;2.10;99.90;;;;;;6178112;28;20446;-59
2020/12/03 04:59:05;;;;;;;27.97;18.67;;;2.10;99.90;;;;;;6177496;28;20799;-59
2020/12/03 05:02:41;;;;;;;32.20;21.23;;;2.00;99.90;;;;;;6177164;28;20494;-59
2020/12/03 05:05:52;;;;;;;31.97;21.33;;;2.00;99.90;;;;;;6177783;28;20470;-58
2020/12/03 05:09:02;;;;;;;27.13;18.77;;;2.00;99.90;;;;;;6172816;28;20573;-59
2020/12/03 05:12:13;;;;;;;26.90;18.80;;;2.00;99.90;;;;;;6176353;28;20469;-58
2020/12/03 05:15:20;;;;;;;27.10;19.63;;;2.00;99.90;;;;;;6177288;28;20771;-58
2020/12/03 05:18:36;;;;;;;30.07;21.03;;;2.00;99.90;;;;;;6177039;28;20488;-58
2020/12/03 05:21:39;;;;;;;30.37;19.47;;;2.00;99.90;;;;;;6177001;28;20977;-58
2020/12/03 05:24:41;;;;;;;29.23;21.87;;;2.00;99.90;;;;;;6176933;28;20478;-58
2020/12/03 05:27:46;;;;;;;33.00;20.63;;;1.90;99.90;;;;;;6176997;28;20786;-58
2020/12/03 05:30:48;;;;;;;31.23;20.60;;;1.90;99.90;;;;;;6176864;28;20863;-58
2020/12/03 05:33:51;;;;;;;34.20;21.93;;;1.90;99.90;;;;;;6176669;28;20496;-58
2020/12/03 05:37:04;;;;;;;31.60;20.40;;;1.80;99.90;;;;;;6176942;28;20485;-58
2020/12/03 05:40:20;;;;;;;31.17;19.53;;;1.70;99.90;;;;;;6177005;28;20492;-59
2020/12/03 05:43:24;;;;;;;33.03;20.37;;;1.70;99.90;;;;;;6176557;28;20569;-58
2020/12/03 05:46:27;;;;;;;29.03;19.17;;;1.70;99.90;;;;;;6176631;28;20484;-57
2020/12/03 05:49:30;;;;;;;28.70;18.43;;;1.80;99.90;;;;;;6176519;28;20489;-58
2020/12/03 05:52:32;;;;;;;29.80;19.60;;;1.90;99.90;;;;;;6176858;28;20481;-58
2020/12/03 05:55:35;;;;;;;32.43;21.20;;;1.90;99.90;;;;;;6176794;28;20465;-59
2020/12/03 05:58:38;;;;;;;31.40;19.70;;;1.90;99.90;;;;;;6176876;28;20446;-58
2020/12/03 06:01:56;;;;;;;31.20;19.73;;;2.00;99.90;;;;;;6176648;28;20505;-58
2020/12/03 06:05:16;;;;;;;29.30;19.90;;;1.90;99.90;;;;;;6176738;28;20493;-58
2020/12/03 06:08:39;;;;;;;34.27;20.13;;;1.80;99.90;;;;;;6176839;28;20485;-58
2020/12/03 06:11:51;;;;;;;27.70;19.60;;;1.70;99.90;;;;;;6166714;28;20934;-59
2020/12/03 06:15:08;;;;;;;28.97;19.80;;;1.60;99.90;;;;;;6176465;28;20496;-59
2020/12/03 06:18:54;;;;;;;33.27;20.27;;;1.70;99.90;;;;;;6176221;28;20474;-60
2020/12/03 06:22:28;;;;;;;29.30;19.00;;;1.70;99.90;;;;;;6079673;29;20478;-59
2020/12/03 06:25:41;;;;;;;29.00;19.90;;;1.70;99.90;;;;;;6080700;28;20473;-58
2020/12/03 06:29:02;;;;;;;32.80;19.70;;;1.80;99.90;;;;;;6180616;28;20569;-58
2020/12/03 06:32:42;;;;;;;31.83;20.20;;;1.80;99.90;;;;;;6181208;28;20472;-58
2020/12/03 06:35:49;;;;;;;32.57;21.53;;;1.90;99.90;;;;;;6180892;28;20811;-59
2020/12/03 06:39:12;;;;;;;32.50;19.20;;;1.90;99.90;;;;;;6180889;28;20477;-58
2020/12/03 06:42:35;;;;;;;27.07;17.73;;;1.90;99.90;;;;;;6180106;28;20496;-58
2020/12/03 06:45:46;;;;;;;28.90;20.30;;;2.00;99.90;;;;;;6180775;28;20945;-58
2020/12/03 06:49:14;;;;;;;30.80;19.60;;;2.00;99.90;;;;;;6180669;28;20560;-59
2020/12/03 06:52:55;;;;;;;29.23;19.93;;;2.00;99.90;;;;;;6180083;28;20816;-60
2020/12/03 06:56:40;;;;;;;27.37;18.00;;;2.20;99.90;;;;;;6151468;28;20465;-58
2020/12/03 07:00:15;;;;;;;30.50;19.80;;;2.20;99.90;;;;;;6180178;28;20485;-59
2020/12/03 07:03:51;;;;;;;29.90;19.97;;;2.20;99.90;;;;;;6179896;28;20516;-59
2020/12/03 07:07:42;;;;;;;32.33;19.80;;;2.40;99.90;;;;;;6164100;28;20485;-58
2020/12/03 07:11:17;;;;;;;29.97;20.37;;;2.40;99.90;;;;;;6179873;28;20461;-59
2020/12/03 07:14:52;;;;;;;29.60;20.23;;;2.50;99.90;;;;;;6175864;28;20470;-60
2020/12/03 07:18:34;;;;;;;30.97;20.10;;;2.60;99.90;;;;;;6179738;28;20564;-59
2020/12/03 07:22:05;;;;;;;30.53;19.97;;;2.70;99.90;;;;;;6179646;28;20628;-59
2020/12/03 07:25:10;;;;;;;29.57;20.03;;;2.60;99.90;;;;;;6173503;28;20481;-59
2020/12/03 07:28:22;;;;;;;29.27;20.70;;;2.60;99.90;;;;;;6180361;28;20484;-59
2020/12/03 07:31:33;;;;;;;31.10;20.37;;;2.70;99.90;;;;;;6179059;28;20625;-60
2020/12/03 07:34:47;;;;;;;29.67;19.87;;;2.80;99.90;;;;;;6179047;28;20524;-59
2020/12/03 07:38:02;;;;;;;31.17;21.30;;;2.90;99.90;;;;;;6179715;28;20474;-60
2020/12/03 07:41:06;;;;;;;28.40;19.67;;;2.90;99.90;;;;;;6179190;28;20466;-59
2020/12/03 07:44:20;;;;;;;30.70;20.17;;;2.90;99.90;;;;;;6179245;28;20549;-60
2020/12/03 07:47:31;;;;;;;30.33;20.80;;;3.00;99.90;;;;;;6179013;28;20505;-59
2020/12/03 07:50:50;;;;;;;27.27;18.77;;;3.10;99.90;;;;;;6178761;28;20474;-59
2020/12/03 07:54:24;;;;;;;29.77;19.47;;;3.10;99.90;;;;;;6179315;28;20997;-61
2020/12/03 07:57:59;;;;;;;22.83;17.23;;;3.10;99.90;;;;;;6178773;28;21055;-59
2020/12/03 08:01:02;;;;;;;24.03;17.60;;;3.20;99.90;;;;;;6178701;28;20594;-58
2020/12/03 08:04:21;;;;;;;25.60;16.80;;;3.20;99.90;;;;;;6178543;28;20482;-59
2020/12/03 08:07:35;;;;;;;27.47;19.40;;;3.30;99.90;;;;;;6178688;28;20820;-59
2020/12/03 08:10:39;;;;;;;28.40;19.00;;;3.30;99.90;;;;;;6178727;28;20477;-58
2020/12/03 08:13:43;;;;;;;26.43;19.50;;;3.40;99.90;;;;;;6178305;28;20535;-58
2020/12/03 08:16:46;;;;;;;25.60;18.60;;;3.40;99.90;;;;;;6174404;28;20430;-60
2020/12/03 08:20:08;;;;;;;22.67;16.90;;;3.40;99.90;;;;;;6178478;28;20454;-59
2020/12/03 08:23:13;;;;;;;25.07;17.90;;;3.40;99.90;;;;;;6178391;28;20773;-60
2020/12/03 08:26:24;;;;;;;22.50;16.70;;;3.50;99.90;;;;;;6182927;28;20469;-59
2020/12/03 08:29:53;;;;;;;26.03;17.80;;;3.70;99.90;;;;;;6180556;28;20977;-58
2020/12/03 08:33:06;;;;;;;25.23;19.33;;;3.60;99.60;;;;;;6170154;28;20482;-61
2020/12/03 08:36:11;;;;;;;28.63;19.13;;;3.80;99.90;;;;;;6160370;28;20470;-62
2020/12/03 08:39:18;;;;;;;26.10;17.63;;;4.00;99.90;;;;;;6173180;28;20488;-62
2020/12/03 08:42:21;;;;;;;23.13;16.90;;;4.20;99.60;;;;;;6173524;28;20478;-62
2020/12/03 08:45:25;;;;;;;23.10;17.53;;;4.30;98.90;;;;;;6177180;28;20941;-60
2020/12/03 08:48:33;;;;;;;23.50;18.33;;;4.40;98.40;;;;;;6171132;28;20816;-60
2020/12/03 08:51:38;;;;;;;22.80;16.60;;;4.40;98.20;;;;;;6179599;28;20469;-61
2020/12/03 08:54:40;;;;;;;25.03;17.00;;;4.30;98.20;;;;;;6185190;28;20623;-62
2020/12/03 08:57:45;;;;;;;26.43;19.80;;;4.30;98.20;;;;;;6187934;28;20477;-62
2020/12/03 09:00:49;;;;;;;22.77;18.47;;;4.20;98.40;;;;;;6188792;28;20473;-64
2020/12/03 09:03:53;;;;;;;23.93;18.40;;;4.20;98.70;;;;;;6189283;28;20488;-66
2020/12/03 09:06:58;;;;;;;23.50;16.77;;;4.30;98.50;;;;;;6189285;28;20481;-65
2020/12/03 09:10:03;;;;;;;22.27;16.87;;;4.30;98.10;;;;;;6190410;28;20481;-63
2020/12/03 09:13:06;;;;;;;20.97;16.70;;;4.20;98.10;;;;;;6196920;28;20469;-65
2020/12/03 09:16:14;;;;;;;21.90;16.73;;;4.20;98.70;;;;;;6176699;28;20478;-63
2020/12/03 09:19:24;;;;;;;24.37;16.90;;;4.10;98.60;;;;;;6187262;28;20984;-63
2020/12/03 09:22:26;;;;;;;22.40;17.10;;;4.00;98.60;;;;;;6174906;28;20469;-64
2020/12/03 09:25:29;;;;;;;26.40;17.50;;;4.10;98.60;;;;;;6167852;28;20496;-68
2020/12/03 09:28:31;;;;;;;24.50;17.37;;;4.10;98.30;;;;;;6176765;28;20468;-67
2020/12/03 09:31:35;;;;;;;24.27;16.20;;;4.10;98.00;;;;;;6186904;28;20548;-63
2020/12/03 09:34:39;;;;;;;20.70;15.27;;;4.10;98.10;;;;;;6188031;28;20434;-65
2020/12/03 09:37:42;;;;;;;21.87;15.83;;;4.20;98.00;;;;;;6187982;28;20441;-62
2020/12/03 09:40:46;;;;;;;23.17;18.07;;;4.30;97.90;;;;;;6173077;28;20493;-61
2020/12/03 09:43:51;;;;;;;24.47;17.10;;;4.20;97.60;;;;;;6153153;29;20481;-61
2020/12/03 09:46:59;;;;;;;22.57;17.00;;;4.10;97.70;;;;;;6154166;28;20463;-62
2020/12/03 09:50:03;;;;;;;24.67;17.60;;;4.10;98.00;;;;;;6176009;28;20994;-63
2020/12/03 09:53:06;;;;;;;24.47;18.60;;;4.00;98.10;;;;;;6176625;28;20484;-63
2020/12/03 09:56:08;;;;;;;26.50;18.77;;;3.90;98.20;;;;;;6176087;28;20473;-64
2020/12/03 09:59:12;;;;;;;27.73;16.97;;;3.90;98.60;;;;;;6180048;28;20813;-68
2020/12/03 10:02:53;;;;;;;26.03;19.07;;;3.80;98.60;;;;;;6180907;28;20844;-66
2020/12/03 10:06:04;;;;;;;23.03;16.87;;;3.70;98.80;;;;;;6164158;28;20790;-66
2020/12/03 10:09:28;;;;;;;22.30;17.27;;;3.70;98.90;;;;;;6181119;28;20477;-63
2020/12/03 10:13:09;;;;;;;22.97;17.73;;;3.70;99.20;;;;;;6181025;28;20973;-61
2020/12/03 10:16:20;;;;;;;25.07;19.33;;;3.70;99.30;;;;;;6169884;28;20832;-65
2020/12/03 10:19:26;;;;;;;21.97;19.03;;;3.60;99.30;;;;;;6187078;28;20473;-61
2020/12/03 10:22:39;;;;;;;24.23;19.07;;;3.50;99.60;;;;;;6186667;28;20468;-63
2020/12/03 10:25:50;;;;;;;27.40;18.93;;;3.50;99.60;;;;;;6180631;28;20446;-61
2020/12/03 10:28:53;;;;;;;23.87;18.00;;;3.50;99.60;;;;;;6204919;28;20790;-69
2020/12/03 10:32:14;;;;;;;25.20;18.87;;;3.50;99.40;;;;;;6204393;28;20469;-62
2020/12/03 10:35:17;;;;;;;25.00;18.80;;;3.40;99.50;;;;;;6204783;28;20971;-66
2020/12/03 10:38:24;;;;;;;26.33;19.87;;;3.40;99.50;;;;;;6204677;28;20472;-64
2020/12/03 10:41:32;;;;;;;24.07;19.27;;;3.50;99.40;;;;;;6181325;28;20781;-61
2020/12/03 10:44:39;;;;;;;22.47;17.03;;;3.50;99.20;;;;;;6180340;28;20474;-64
2020/12/03 10:47:47;;;;;;;25.63;18.93;;;3.60;99.30;;;;;;6180249;28;20969;-68
2020/12/03 10:50:56;;;;;;;25.83;17.60;;;3.50;99.40;;;;;;6180316;28;20478;-67
2020/12/03 10:53:59;;;;;;;24.90;18.43;;;3.50;99.50;;;;;;6179971;28;21028;-64
2020/12/03 10:57:06;;;;;;;27.93;18.73;;;3.50;99.50;;;;;;6179976;28;20470;-69
2020/12/03 11:00:09;;;;;;;23.70;18.80;;;3.50;99.40;;;;;;6179869;28;20477;-63
2020/12/03 11:03:17;;;;;;;26.50;17.50;;;3.40;99.40;;;;;;6179731;28;20993;-64
2020/12/03 11:06:29;;;;;;;26.43;19.23;;;3.40;99.50;;;;;;6179604;28;20969;-64
2020/12/03 11:09:32;;;;;;;23.90;16.30;;;3.40;99.50;;;;;;6178534;28;20474;-68
2020/12/03 11:12:35;;;;;;;25.73;18.57;;;3.50;99.60;;;;;;6179624;28;20474;-66
2020/12/03 11:15:38;;;;;;;21.40;18.00;;;3.50;99.50;;;;;;6197750;28;20465;-61
2020/12/03 11:18:44;;;;;;;22.70;19.17;;;3.50;99.50;;;;;;6202121;28;20861;-62
2020/12/03 11:21:54;;;;;;;28.60;19.93;;;3.50;99.90;;;;;;6191531;28;20488;-61
2020/12/03 11:25:02;;;;;;;25.87;19.00;;;3.50;99.50;;;;;;6201782;28;20481;-62
2020/12/03 11:28:31;;;;;;;21.83;18.20;;;3.70;99.30;;;;;;6199506;28;20484;-61
2020/12/03 11:31:33;;;;;;;24.60;19.00;;;3.70;99.40;;;;;;6192638;28;21031;-61
2020/12/03 11:34:36;;;;;;;22.17;18.80;;;3.80;99.20;;;;;;6194323;28;20441;-62
2020/12/03 11:37:42;;;;;;;23.70;16.53;;;3.80;99.40;;;;;;6200001;28;20434;-62
2020/12/03 11:40:52;;;;;;;28.47;17.43;;;3.90;98.60;;;;;;6194343;28;20504;-62
2020/12/03 11:50:42;;;;;;;25.90;19.07;;;3.90;98.80;;;;;;6202510;28;20482;-66
2020/12/03 11:53:56;;;;;;;25.03;18.97;;;3.90;99.00;;;;;;6203159;28;20771;-64
2020/12/03 11:57:00;;;;;;;26.47;20.37;;;3.90;98.70;;;;;;6202775;28;20976;-63
2020/12/03 12:00:03;;;;;;;25.63;19.13;;;4.10;98.80;;;;;;6202529;28;20560;-61
2020/12/03 12:03:07;;;;;;;25.07;19.23;;;4.10;98.40;;;;;;6202673;28;20964;-63
2020/12/03 12:06:19;;;;;;;24.73;19.40;;;4.10;98.40;;;;;;6202758;28;20902;-62
2020/12/03 12:09:25;;;;;;;26.40;17.37;;;4.20;98.40;;;;;;6202703;28;20484;-60
2020/12/03 12:12:31;;;;;;;25.43;19.17;;;4.10;98.00;;;;;;6202424;28;20500;-61
2020/12/03 12:15:34;;;;;;;28.20;20.37;;;4.00;98.30;;;;;;6201596;28;20454;-61
2020/12/03 12:18:37;;;;;;;27.93;19.80;;;4.10;98.30;;;;;;6202062;28;20480;-64
2020/12/03 12:21:39;;;;;;;24.93;16.87;;;4.10;98.50;;;;;;6201833;28;20473;-63
2020/12/03 12:24:42;;;;;;;23.27;17.73;;;4.10;98.00;;;;;;6202212;28;20484;-61
2020/12/03 12:27:48;;;;;;;23.73;18.00;;;4.00;97.90;;;;;;6202073;28;20480;-64
2020/12/03 12:30:54;;;;;;;32.23;21.27;;;4.00;98.10;;;;;;6201998;28;21019;-64
2020/12/03 12:33:57;;;;;;;25.20;18.13;;;4.10;98.40;;;;;;6201796;28;20580;-61
2020/12/03 12:37:01;;;;;;;24.27;19.13;;;4.00;98.50;;;;;;6201561;28;20527;-59
2020/12/03 12:40:04;;;;;;;26.73;20.13;;;4.00;98.30;;;;;;6190965;28;20488;-59
2020/12/03 12:43:07;;;;;;;24.27;19.33;;;4.10;98.50;;;;;;6175977;28;20474;-65
2020/12/03 12:46:09;;;;;;;28.13;20.03;;;4.30;98.30;;;;;;6177425;28;20481;-67
2020/12/03 12:49:11;;;;;;;25.20;18.17;;;4.30;97.80;;;;;;6177824;28;20983;-67
2020/12/03 12:52:14;;;;;;;27.40;18.87;;;4.30;97.70;;;;;;6177457;28;20557;-65
2020/12/03 12:55:17;;;;;;;27.17;19.63;;;4.30;97.40;;;;;;6177475;28;20484;-59
2020/12/03 12:58:20;;;;;;;27.93;20.17;;;4.30;97.90;;;;;;6175878;28;20477;-59
2020/12/03 13:01:23;;;;;;;26.70;20.80;;;4.20;97.90;;;;;;6175176;28;20490;-59
2020/12/03 13:04:25;;;;;;;30.27;22.13;;;4.10;98.00;;;;;;6174692;28;20500;-59
2020/12/03 13:07:28;;;;;;;29.70;20.63;;;3.90;98.20;;;;;;6174981;28;20962;-59
2020/12/03 13:10:30;;;;;;;26.27;19.57;;;3.90;98.30;;;;;;6174855;28;20957;-59
2020/12/03 13:13:35;;;;;;;27.90;20.33;;;3.90;98.50;;;;;;6176300;28;20467;-59
2020/12/03 13:16:38;;;;;;;29.27;20.17;;;3.90;98.70;;;;;;6197252;28;20442;-68
2020/12/03 13:19:41;;;;;;;30.90;21.87;;;3.90;98.70;;;;;;6201285;28;20551;-64
2020/12/03 13:22:43;;;;;;;26.10;19.37;;;3.90;98.70;;;;;;6200820;28;20905;-66
2020/12/03 13:25:45;;;;;;;29.40;20.27;;;3.80;98.70;;;;;;6201191;28;20484;-64
2020/12/03 13:28:49;;;;;;;30.37;21.70;;;3.80;99.10;;;;;;6200045;28;20931;-60
2020/12/03 13:31:51;;;;;;;28.83;21.40;;;3.80;98.90;;;;;;6198724;28;21597;-63
2020/12/03 13:34:53;;;;;;;27.87;21.47;;;3.70;98.90;;;;;;6179562;28;20474;-61
2020/12/03 13:37:56;;;;;;;29.00;19.97;;;3.70;99.10;;;;;;6166641;28;20480;-60
2020/12/03 13:40:58;;;;;;;32.07;21.50;;;3.80;99.30;;;;;;6175840;28;21285;-65
2020/12/03 13:44:01;;;;;;;27.63;19.97;;;3.70;99.10;;;;;;6176688;28;20609;-66
2020/12/03 13:47:07;;;;;;;27.10;19.57;;;3.70;99.50;;;;;;6176563;28;20469;-65
2020/12/03 13:50:10;;;;;;;27.00;20.00;;;3.60;99.50;;;;;;6176309;28;20481;-61
2020/12/03 13:53:12;;;;;;;26.90;20.47;;;3.70;99.60;;;;;;6176761;28;20481;-65
2020/12/03 13:56:15;;;;;;;28.13;19.90;;;3.80;99.20;;;;;;6176422;28;21016;-60
2020/12/03 13:59:18;;;;;;;27.80;20.13;;;3.60;99.00;;;;;;6197914;28;20473;-65
2020/12/03 14:02:22;;;;;;;29.70;21.70;;;3.60;99.40;;;;;;6199221;28;20821;-60
2020/12/03 14:05:25;;;;;;;31.73;23.67;;;3.60;99.50;;;;;;6200757;28;20492;-61
2020/12/03 14:08:29;;;;;;;28.47;21.03;;;3.60;99.50;;;;;;6183901;28;20512;-61
2020/12/03 14:11:32;;;;;;;26.70;21.77;;;3.60;99.50;;;;;;6176665;28;20533;-59
2020/12/03 14:14:35;;;;;;;34.17;21.27;;;3.50;99.60;;;;;;6182197;28;20479;-58
2020/12/03 14:17:38;;;;;;;27.60;21.57;;;3.50;99.80;;;;;;6198811;28;20983;-58
2020/12/03 14:20:40;;;;;;;28.70;19.77;;;3.50;99.80;;;;;;6198503;28;20476;-57
2020/12/03 14:23:43;;;;;;;26.93;20.37;;;3.50;99.70;;;;;;6198828;28;20563;-58
2020/12/03 14:26:45;;;;;;;29.07;21.63;;;3.60;99.90;;;;;;6198692;28;20568;-58
2020/12/03 14:29:48;;;;;;;29.23;21.60;;;3.60;99.90;;;;;;6197378;28;21170;-58
2020/12/03 14:32:51;;;;;;;27.37;20.80;;;3.70;99.70;;;;;;6177379;28;20470;-57
2020/12/03 14:35:53;;;;;;;28.53;20.73;;;3.70;99.70;;;;;;6187970;28;20470;-57
2020/12/03 14:38:56;;;;;;;29.10;20.03;;;3.80;99.60;;;;;;6182510;28;20466;-57
2020/12/03 14:41:58;;;;;;;28.97;21.60;;;3.90;99.40;;;;;;6167855;28;20470;-57
2020/12/03 14:45:03;;;;;;;27.93;21.10;;;3.90;99.40;;;;;;6179186;28;20492;-57
2020/12/03 14:48:06;;;;;;;25.70;18.93;;;3.90;99.40;;;;;;6180216;28;20488;-58
2020/12/03 14:51:08;;;;;;;27.43;22.93;;;3.80;99.40;;;;;;6180133;28;20478;-58
2020/12/03 14:54:11;;;;;;;27.40;20.10;;;3.80;99.50;;;;;;6180486;28;20838;-59
2020/12/03 14:57:14;;;;;;;26.00;21.70;;;3.70;99.50;;;;;;6180163;28;20985;-60
2020/12/03 15:00:19;;;;;;;30.70;22.80;;;3.60;99.60;;;;;;6179770;28;20991;-60
2020/12/03 15:03:21;;;;;;;29.53;20.97;;;3.50;99.70;;;;;;6180038;28;20481;-65
2020/12/03 15:06:24;;;;;;;32.27;20.40;;;3.40;99.90;;;;;;6179805;28;20529;-62
2020/12/03 15:09:26;;;;;;;31.93;22.10;;;3.40;99.90;;;;;;6179442;28;20482;-64
2020/12/03 15:12:33;;;;;;;28.20;21.90;;;3.30;99.90;;;;;;6179919;28;20478;-66
2020/12/03 15:15:36;;;;;;;30.30;23.03;;;3.30;99.90;;;;;;6179985;28;20469;-66
2020/12/03 15:18:38;;;;;;;27.80;21.33;;;3.30;99.90;;;;;;6179613;28;20484;-60
2020/12/03 15:21:41;;;;;;;30.93;22.67;;;3.20;99.90;;;;;;6179769;28;20832;-60
2020/12/03 15:24:43;;;;;;;31.43;22.90;;;3.10;99.90;;;;;;6179705;28;20972;-63
2020/12/03 15:27:45;;;;;;;32.43;22.80;;;2.80;99.90;;;;;;6192265;28;20465;-65
2020/12/03 15:30:48;;;;;;;30.90;21.70;;;2.80;99.90;;;;;;6177313;28;20493;-61
2020/12/03 15:33:51;;;;;;;34.17;23.87;;;2.80;99.90;;;;;;6179237;28;20492;-65
2020/12/03 15:36:56;;;;;;;30.53;22.93;;;2.80;99.90;;;;;;6179322;28;20555;-70
2020/12/03 15:39:58;;;;;;;28.33;21.60;;;2.80;99.90;;;;;;6178150;28;20493;-62
2020/12/03 15:43:00;;;;;;;27.83;21.50;;;2.80;99.90;;;;;;6176232;28;20492;-67
2020/12/03 15:46:04;;;;;;;27.90;22.50;;;2.80;99.90;;;;;;6179090;28;20470;-65
2020/12/03 15:49:06;;;;;;;33.17;20.50;;;2.90;99.90;;;;;;6179167;28;20630;-63
2020/12/03 15:52:10;;;;;;;32.67;22.60;;;2.90;99.90;;;;;;6179016;28;20825;-68
2020/12/03 15:55:12;;;;;;;31.40;22.33;;;2.90;99.90;;;;;;6179900;28;20466;-63
2020/12/03 15:58:14;;;;;;;32.40;20.83;;;2.90;99.90;;;;;;6192442;28;20844;-63
2020/12/03 16:01:17;;;;;;;31.17;22.03;;;2.90;99.90;;;;;;6202850;28;20995;-63
2020/12/03 16:04:20;;;;;;;29.90;21.03;;;2.80;99.90;;;;;;6202715;28;20481;-62
2020/12/03 16:07:22;;;;;;;29.03;21.50;;;2.90;99.90;;;;;;6202667;28;20822;-64